Time;durP1;ratioP1;P1;durP2;ratioP2;P2;SDS_P1;SDS_P2;PMS_P1;PMS_P2;Temp;Humidity;BMP_temperature;BMP_pressure;BME280_temperature;BME280_humidity;BME280_pressure;Samples;Min_cycle;Max_cycle;Signal;HPM_P1;HPM_P2
2022/02/02 00:00:58;;;;;;;4.37;4.17;;;;;;;7.52;91.14;100995.53;6081873;23;20501;-70
2022/02/02 00:03:26;;;;;;;3.30;3.20;;;;;;;7.04;92.85;100939.72;6064621;23;20298;-70
2022/02/02 00:08:31;;;;;;;13.80;4.00;;;;;;;7.23;92.06;100986.09;6064080;23;20353;-70
2022/02/02 00:16:44;;;;;;;5.03;4.75;;;;;;;7.18;88.92;101014.94;6075253;23;20025;-69
2022/02/02 00:21:49;;;;;;;3.42;3.33;;;;;;;6.73;90.33;100960.75;6080929;23;20038;-69
2022/02/02 00:27:11;;;;;;;4.95;4.75;;;;;;;5.85;91.13;100842.69;6065448;23;20014;-70
2022/02/02 00:29:43;;;;;;;3.90;3.70;;;;;;;7.01;92.37;101035.53;6089363;23;20046;-70
2022/02/02 00:34:51;;;;;;;3.40;3.30;;;;;;;6.72;92.35;100999.00;6074289;23;20428;-70
2022/02/02 00:37:19;;;;;;;5.35;5.15;;;;;;;6.83;92.43;101037.78;6072257;23;20034;-70
2022/02/02 00:39:46;;;;;;;4.35;4.13;;;;;;;6.82;93.14;101048.31;6074474;23;20026;-70
2022/02/02 00:42:13;;;;;;;5.75;5.50;;;;;;;6.74;94.39;101046.78;6019187;23;20501;-69
2022/02/02 00:44:45;;;;;;;3.30;3.20;;;;;;;6.74;94.22;101052.00;6049371;23;20019;-70
2022/02/02 00:47:19;;;;;;;5.57;5.35;;;;;;;6.76;93.48;101047.56;6054400;23;20377;-69
2022/02/02 00:49:47;;;;;;;3.47;3.38;;;;;;;6.49;93.34;100984.06;6057062;23;20026;-71
2022/02/02 00:52:14;;;;;;;5.32;5.13;;;;;;;6.81;93.67;101036.16;6059157;23;20217;-71
2022/02/02 00:54:40;;;;;;;3.60;3.50;;;;;;;6.75;93.15;101031.97;6049068;23;20048;-70
2022/02/02 00:57:08;;;;;;;5.25;5.05;;;;;;;6.81;93.28;101036.16;6081240;23;20071;-70
2022/02/02 00:59:34;;;;;;;3.50;3.40;;;;;;;6.59;92.89;101039.41;6067269;23;20053;-72
2022/02/02 01:02:01;;;;;;;3.50;3.40;;;;;;;6.73;92.93;101052.88;6079157;23;20018;-72
2022/02/02 01:04:28;;;;;;;3.47;3.38;;;;;;;6.76;93.23;101049.34;6105127;23;20088;-69
2022/02/02 01:09:32;;;;;;;3.45;3.35;;;;;;;6.68;94.08;101046.13;6081284;23;20006;-69
2022/02/02 01:19:58;;;;;;;3.33;3.22;;;;;;;5.96;95.12;100995.19;6085576;23;20454;-72
2022/02/02 01:27:55;;;;;;;4.10;3.90;;;;;;;5.68;96.48;100956.00;6089209;23;20480;-70
2022/02/02 01:30:23;;;;;;;4.30;4.10;;;;;;;6.31;96.67;101052.41;6062583;23;20038;-72
2022/02/02 01:32:51;;;;;;;3.50;3.40;;;;;;;6.36;95.49;101053.13;6101141;23;20017;-70
2022/02/02 01:35:18;;;;;;;3.95;3.78;;;;;;;6.30;95.48;101040.28;6045716;23;20038;-72
2022/02/02 01:37:48;;;;;;;3.35;3.25;;;;;;;6.41;95.17;101053.84;6054759;23;20093;-69
2022/02/02 01:40:27;;;;;;;3.40;3.30;;;;;;;5.71;94.86;100931.63;6088013;23;20034;-69
2022/02/02 01:43:02;;;;;;;3.33;3.22;;;;;;;6.46;94.87;101056.34;6064744;23;20495;-69
2022/02/02 01:45:45;;;;;;;3.42;3.33;;;;;;;6.52;95.67;101074.41;6079442;23;20018;-69
2022/02/02 01:48:32;;;;;;;3.60;3.50;;;;;;;6.21;95.27;101009.25;6055661;23;20030;-70
2022/02/02 01:51:10;;;;;;;3.47;3.38;;;;;;;6.69;94.51;101050.41;6063456;23;20081;-70
2022/02/02 01:56:11;;;;;;;3.40;3.30;;;;;;;6.58;93.70;101043.78;6089293;23;20081;-70
2022/02/02 01:58:54;;;;;;;3.40;3.30;;;;;;;6.20;93.52;100966.72;6067877;23;20407;-70
2022/02/02 02:01:22;;;;;;;3.70;3.60;;;;;;;6.89;92.28;101060.25;6092974;23;20018;-69
2022/02/02 02:03:53;;;;;;;3.40;3.30;;;;;;;6.91;91.93;101084.53;6083349;23;20073;-69
2022/02/02 02:06:19;;;;;;;4.13;3.92;;;;;;;6.79;92.04;101065.75;6071309;23;20085;-69
2022/02/02 02:08:46;;;;;;;3.45;3.35;;;;;;;6.90;91.21;101073.25;6077839;23;20474;-69
2022/02/02 02:11:18;;;;;;;5.57;5.38;;;;;;;6.48;90.64;100999.78;6100714;23;20084;-69
2022/02/02 02:16:14;;;;;;;4.70;4.50;;;;;;;6.97;90.77;101071.28;6074406;23;20014;-70
2022/02/02 02:18:40;;;;;;;3.45;3.35;;;;;;;6.68;90.71;101031.31;6089734;23;20148;-70
2022/02/02 02:21:12;;;;;;;3.50;3.40;;;;;;;6.67;90.27;101031.34;6069096;23;20101;-70
2022/02/02 02:23:39;;;;;;;3.28;3.17;;;;;;;6.91;90.73;101068.88;6095225;23;20236;-70
2022/02/02 02:26:06;;;;;;;3.60;3.50;;;;;;;6.93;91.35;101080.97;6121628;23;20458;-72
2022/02/02 02:28:46;;;;;;;3.50;3.40;;;;;;;6.54;90.84;101026.50;6088923;23;20254;-70
2022/02/02 02:39:52;;;;;;;3.70;3.60;;;;;;;6.97;90.58;101073.91;6105898;23;20044;-70
2022/02/02 02:55:48;;;;;;;3.45;3.35;;;;;;;6.59;90.69;101026.38;6072892;23;20084;-69
2022/02/02 02:56:07;;;;;;;5.25;5.05;;;;;;;6.84;92.03;101088.25;6106627;23;20014;-70
2022/02/02 02:58:44;;;;;;;4.00;3.80;;;;;;;6.85;91.56;101095.16;6081807;23;20024;-69
2022/02/02 03:01:25;;;;;;;5.57;5.35;;;;;;;6.86;90.57;101095.09;6111597;23;20106;-69
2022/02/02 03:31:44;;;;;;;3.60;3.50;;;;;;;6.48;90.53;101041.50;5990697;23;20079;-69
2022/02/02 04:06:57;;;;;;;4.00;3.80;;;;;;;6.30;89.19;101051.56;6074436;23;20010;-70
2022/02/02 04:09:24;;;;;;;3.58;3.47;;;;;;;6.79;88.62;101120.53;6088383;23;20004;-70
2022/02/02 04:12:16;;;;;;;3.80;3.70;;;;;;;6.41;89.20;101058.22;6092128;23;20094;-70
2022/02/02 04:55:40;;;;;;;3.45;3.35;;;;;;;6.43;89.74;101130.25;6111067;23;19965;-69
2022/02/02 04:58:25;;;;;;;4.85;4.65;;;;;;;6.06;90.07;101075.69;6082610;23;20018;-69
2022/02/02 05:01:41;;;;;;;3.40;3.30;;;;;;;5.96;89.91;101062.06;6086093;23;20033;-69
2022/02/02 05:08:56;;;;;;;4.28;4.07;;;;;;;6.09;90.72;101114.69;6114746;23;20489;-70
2022/02/02 05:17:15;;;;;;;3.50;3.40;;;;;;;6.28;90.86;101147.19;6082152;23;20350;-70
2022/02/02 05:52:36;;;;;;;3.72;3.63;;;;;;;6.49;90.66;101194.41;6083358;23;20021;-69
2022/02/02 05:55:03;;;;;;;4.35;4.15;;;;;;;6.46;91.36;101218.81;6052415;23;20031;-70
2022/02/02 05:57:32;;;;;;;3.60;3.50;;;;;;;5.66;91.57;101072.38;6084833;23;20010;-69
2022/02/02 05:59:59;;;;;;;3.72;3.60;;;;;;;6.50;92.21;101220.44;6057828;23;20034;-69
2022/02/02 06:02:32;;;;;;;3.67;3.58;;;;;;;6.28;91.97;101201.91;6086661;23;20020;-69
2022/02/02 06:05:06;;;;;;;3.65;3.53;;;;;;;6.41;92.31;101219.84;6058523;23;20086;-71
2022/02/02 06:07:35;;;;;;;3.65;3.50;;;;;;;6.19;92.35;101184.78;6079410;23;20033;-69
2022/02/02 06:10:04;;;;;;;4.95;4.75;;;;;;;6.46;92.03;101231.88;6062031;23;20030;-69
2022/02/02 06:12:31;;;;;;;3.58;3.47;;;;;;;6.35;91.91;101200.88;6085124;23;20026;-69
2022/02/02 06:15:00;;;;;;;3.80;3.70;;;;;;;6.46;92.74;101221.44;6093036;23;20177;-70
2022/02/02 06:17:28;;;;;;;3.58;3.47;;;;;;;6.30;93.15;101196.66;6048763;23;20257;-69
2022/02/02 06:19:58;;;;;;;3.40;3.30;;;;;;;6.39;92.40;101223.34;6083765;23;20032;-70
2022/02/02 06:22:31;;;;;;;3.80;3.67;;;;;;;6.33;92.65;101231.31;6081142;23;20017;-70
2022/02/02 06:25:13;;;;;;;3.70;3.60;;;;;;;5.95;93.14;101168.03;6060603;23;20021;-70
2022/02/02 06:27:43;;;;;;;3.72;3.55;;;;;;;6.11;93.37;101178.03;6096765;23;20029;-70
2022/02/02 06:30:10;;;;;;;4.03;3.83;;;;;;;6.45;92.75;101237.09;6097352;23;20186;-70
2022/02/02 06:32:52;;;;;;;4.25;4.05;;;;;;;6.45;93.37;101251.00;6063422;23;20073;-70
2022/02/02 06:35:22;;;;;;;3.70;3.60;;;;;;;6.46;93.16;101249.25;6079477;23;20029;-70
2022/02/02 06:37:49;;;;;;;3.50;3.40;;;;;;;6.42;92.86;101251.09;6060053;23;20017;-70
2022/02/02 06:40:18;;;;;;;5.60;5.32;;;;;;;6.33;93.64;101231.31;6075548;23;20346;-70
2022/02/02 06:42:45;;;;;;;3.75;3.65;;;;;;;6.45;93.65;101247.53;6061178;23;20082;-70
2022/02/02 06:45:13;;;;;;;5.60;5.40;;;;;;;6.41;92.88;101244.16;6073724;23;20824;-69
2022/02/02 06:47:40;;;;;;;3.47;3.38;;;;;;;6.29;94.07;101231.44;6046745;23;20456;-70
2022/02/02 06:52:46;;;;;;;3.40;3.30;;;;;;;6.45;93.37;101264.03;6048625;23;20255;-70
2022/02/02 06:55:28;;;;;;;5.75;5.53;;;;;;;6.39;93.52;101269.41;6071407;23;20029;-70
2022/02/02 06:58:24;;;;;;;3.65;3.55;;;;;;;6.36;94.39;101270.34;6045265;23;20207;-70
2022/02/02 07:01:10;;;;;;;3.50;3.40;;;;;;;6.38;94.11;101273.78;6089075;23;20032;-70
2022/02/02 07:03:58;;;;;;;3.55;3.45;;;;;;;5.99;94.25;101213.06;6085017;23;20388;-69
2022/02/02 07:07:16;;;;;;;3.45;3.35;;;;;;;6.36;94.92;101280.78;6055087;23;20026;-70
2022/02/02 07:12:35;;;;;;;6.00;5.70;;;;;;;6.29;95.61;101291.38;6050439;23;20351;-70
2022/02/02 07:15:20;;;;;;;6.85;6.25;;;;;;;6.30;95.01;101296.56;6070987;23;20022;-69
2022/02/02 07:21:04;;;;;;;3.50;3.40;;;;;;;6.33;94.78;101301.69;6075583;23;20049;-73
2022/02/02 07:29:09;;;;;;;3.58;3.47;;;;;;;5.60;94.28;101185.31;6061573;23;20018;-71
2022/02/02 07:34:53;;;;;;;3.63;3.53;;;;;;;6.29;94.07;101325.28;6079667;23;20123;-72
2022/02/02 07:37:38;;;;;;;3.60;3.50;;;;;;;6.03;93.58;101320.69;6048666;23;20874;-71
2022/02/02 07:40:08;;;;;;;5.35;5.15;;;;;;;6.23;94.62;101341.91;6042263;23;20399;-72
2022/02/02 07:42:40;;;;;;;3.72;3.63;;;;;;;6.26;93.99;101341.84;6058993;23;20290;-74
2022/02/02 07:45:10;;;;;;;6.22;5.93;;;;;;;6.03;94.84;101310.25;6082138;23;20045;-72
2022/02/02 07:47:46;;;;;;;3.60;3.50;;;;;;;6.27;93.95;101348.75;6048192;23;20201;-71
2022/02/02 07:50:14;;;;;;;5.35;5.15;;;;;;;5.98;93.32;101289.53;6050848;23;20251;-72
2022/02/02 07:52:43;;;;;;;3.60;3.50;;;;;;;6.28;93.85;101339.22;6051285;23;20272;-71
2022/02/02 07:55:12;;;;;;;6.20;5.90;;;;;;;6.31;92.97;101336.53;6065424;23;20018;-71
2022/02/02 07:57:43;;;;;;;3.80;3.70;;;;;;;6.31;93.06;101344.34;6053386;23;20038;-71
2022/02/02 08:00:17;;;;;;;6.18;5.88;;;;;;;6.37;92.65;101347.69;6072696;23;20512;-71
2022/02/02 08:03:03;;;;;;;3.67;3.58;;;;;;;6.07;92.42;101285.84;6056603;23;20060;-71
2022/02/02 08:05:33;;;;;;;3.70;3.60;;;;;;;5.93;91.95;101286.13;6054542;23;20089;-71
2022/02/02 08:10:28;;;;;;;3.80;3.70;;;;;;;6.02;91.28;101303.34;6090572;23;20368;-71
2022/02/02 08:15:23;;;;;;;4.90;4.70;;;;;;;6.07;91.55;101320.56;6108860;23;20025;-70
2022/02/02 08:17:51;;;;;;;3.85;3.65;;;;;;;5.38;90.84;101179.75;6082911;23;20357;-72
2022/02/02 08:20:18;;;;;;;4.55;4.35;;;;;;;6.42;91.23;101364.94;6094531;23;20291;-73
2022/02/02 08:22:45;;;;;;;3.63;3.53;;;;;;;6.24;90.81;101330.59;6086535;23;20541;-74
2022/02/02 08:25:22;;;;;;;5.28;5.07;;;;;;;6.60;89.77;101408.84;6088688;23;20033;-73
2022/02/02 08:27:50;;;;;;;3.60;3.50;;;;;;;6.08;90.21;101311.88;6080003;23;20219;-74
2022/02/02 08:30:18;;;;;;;4.70;4.50;;;;;;;5.39;88.93;101188.41;6119529;23;20321;-71
2022/02/02 08:32:52;;;;;;;4.25;3.92;;;;;;;6.34;89.18;101323.44;6085680;23;20026;-74
2022/02/02 08:35:21;;;;;;;3.85;3.72;;;;;;;5.63;89.18;101201.75;6101966;23;20226;-72
2022/02/02 08:37:54;;;;;;;3.80;3.70;;;;;;;6.91;88.63;101402.84;6073857;23;20049;-72
2022/02/02 08:43:26;;;;;;;5.40;5.20;;;;;;;6.96;87.76;101406.22;6080397;23;20101;-72
2022/02/02 08:45:57;;;;;;;3.70;3.60;;;;;;;6.91;88.19;101397.63;6061585;23;20101;-71
2022/02/02 08:48:27;;;;;;;3.58;3.47;;;;;;;5.33;87.65;101136.50;6076323;23;20084;-73
2022/02/02 08:51:02;;;;;;;5.00;4.70;;;;;;;6.45;88.83;101334.44;6107281;23;20018;-72
2022/02/02 08:58:34;;;;;;;3.67;3.58;;;;;;;7.41;87.13;101442.41;6077177;23;20020;-74
2022/02/02 09:01:06;;;;;;;4.88;4.65;;;;;;;6.79;86.37;101330.97;6079355;23;20099;-74
2022/02/02 09:06:18;;;;;;;3.85;3.72;;;;;;;7.31;86.11;101443.56;6118086;23;20266;-74
2022/02/02 09:08:47;;;;;;;3.80;3.70;;;;;;;7.21;85.62;101426.44;6096614;23;20077;-71
2022/02/02 09:35:36;;;;;;;3.95;3.80;;;;;;;7.18;86.33;101365.56;6086631;23;20703;-71
2022/02/02 09:38:03;;;;;;;4.47;4.28;;;;;;;7.48;85.80;101415.25;6120141;23;20399;-72
2022/02/02 09:43:20;;;;;;;5.68;5.45;;;;;;;7.73;86.43;101451.97;6112939;23;20268;-72
2022/02/02 09:45:57;;;;;;;4.00;3.80;;;;;;;7.63;87.38;101447.06;6085452;23;20087;-72
2022/02/02 09:48:47;;;;;;;3.85;3.75;;;;;;;7.14;86.93;101337.00;6112264;23;20537;-72
2022/02/02 09:51:21;;;;;;;6.05;5.75;;;;;;;7.80;86.96;101455.28;6082797;23;20282;-72
2022/02/02 09:53:59;;;;;;;3.60;3.50;;;;;;;7.92;87.85;101465.38;6109224;23;20360;-72
2022/02/02 09:56:44;;;;;;;3.85;3.72;;;;;;;7.88;87.25;101435.00;6063915;23;20622;-72
2022/02/02 10:05:29;;;;;;;4.07;3.90;;;;;;;8.18;85.51;101474.22;6081506;23;20022;-74
2022/02/02 10:11:46;;;;;;;3.92;3.78;;;;;;;7.94;86.28;101428.75;6093488;23;20096;-72
2022/02/02 10:14:26;;;;;;;5.55;5.35;;;;;;;8.07;86.08;101484.13;6083144;23;20050;-71
2022/02/02 10:16:54;;;;;;;;;;;;;;;8.04;85.93;101492.94;6083068;23;20387;-72
2022/02/02 10:19:22;;;;;;;3.70;3.60;;;;;;;7.78;85.82;101485.84;6077640;23;20016;-72
2022/02/02 10:21:51;;;;;;;6.93;4.50;;;;;;;7.74;86.31;101486.81;6100596;23;20446;-72
2022/02/02 10:24:18;;;;;;;4.55;4.35;;;;;;;7.91;86.53;101508.09;6066263;23;20037;-72
2022/02/02 10:26:46;;;;;;;25.00;4.53;;;;;;;7.68;86.83;101485.22;6069004;23;20115;-74
2022/02/02 10:29:17;;;;;;;10.00;6.78;;;;;;;7.54;86.83;101482.13;6051577;23;20093;-73
2022/02/02 10:31:50;;;;;;;4.00;3.83;;;;;;;7.56;86.43;101472.50;6058977;23;20018;-73
2022/02/02 10:34:19;;;;;;;5.32;5.13;;;;;;;7.84;86.13;101519.63;6071333;23;20607;-72
2022/02/02 10:37:18;;;;;;;4.15;3.95;;;;;;;7.85;86.09;101516.09;6053761;23;20018;-72
2022/02/02 10:39:47;;;;;;;3.80;3.70;;;;;;;7.89;86.30;101517.72;6077893;23;20038;-73
2022/02/02 10:42:33;;;;;;;5.90;5.65;;;;;;;7.61;86.18;101467.16;6049089;23;20022;-73
2022/02/02 10:45:27;;;;;;;4.10;3.90;;;;;;;7.85;85.24;101510.03;6054885;23;20708;-70
2022/02/02 10:48:12;;;;;;;3.95;3.78;;;;;;;7.95;85.26;101519.31;6067916;23;20292;-69
2022/02/02 10:50:49;;;;;;;4.00;3.80;;;;;;;7.36;85.21;101421.66;6046102;23;20030;-70
2022/02/02 11:01:07;;;;;;;3.85;3.75;;;;;;;7.72;84.69;101470.34;6060127;23;20033;-70
2022/02/02 11:06:40;;;;;;;4.00;3.80;;;;;;;8.09;83.66;101518.94;6064390;23;20115;-73
2022/02/02 11:09:12;;;;;;;4.00;3.80;;;;;;;8.44;83.08;101535.38;6109247;23;20412;-71
2022/02/02 11:11:45;;;;;;;3.80;3.70;;;;;;;7.93;82.66;101443.56;6058597;23;20014;-72
2022/02/02 11:14:45;;;;;;;5.90;5.60;;;;;;;8.24;81.68;101520.22;6119036;23;20049;-72
2022/02/02 11:17:23;;;;;;;5.50;5.30;;;;;;;8.28;81.79;101507.03;6057649;23;20026;-70
2022/02/02 11:19:54;;;;;;;4.00;3.80;;;;;;;8.17;81.72;101477.72;6065473;23;20177;-71
2022/02/02 11:22:33;;;;;;;4.20;4.00;;;;;;;8.46;81.18;101531.84;6057010;23;20065;-71
2022/02/02 11:25:03;;;;;;;4.05;3.85;;;;;;;8.48;80.89;101530.03;6081625;23;20627;-71
2022/02/02 11:27:38;;;;;;;4.22;4.03;;;;;;;8.01;81.44;101448.56;5954927;23;20105;-71
2022/02/02 11:30:28;;;;;;;6.05;5.75;;;;;;;8.37;81.18;101511.13;6060366;23;20487;-70
2022/02/02 11:32:56;;;;;;;4.18;3.97;;;;;;;8.89;80.54;101535.72;6084932;23;20058;-70
2022/02/02 11:38:31;;;;;;;4.20;4.00;;;;;;;9.45;76.14;101524.28;6056630;23;20021;-70
2022/02/02 11:43:46;;;;;;;4.10;3.90;;;;;;;9.47;74.52;101529.47;6065495;23;20054;-71
2022/02/02 11:46:38;;;;;;;5.38;5.18;;;;;;;9.33;74.99;101535.19;6099307;23;20053;-70
2022/02/02 11:49:15;;;;;;;7.78;5.82;;;;;;;9.07;73.77;101509.88;6046396;23;20047;-70
2022/02/02 11:51:50;;;;;;;3.80;3.70;;;;;;;9.12;74.58;101541.97;6091078;23;20041;-70
2022/02/02 11:54:19;;;;;;;5.20;5.00;;;;;;;8.77;74.65;101523.88;6046524;23;20042;-70
2022/02/02 11:56:58;;;;;;;4.30;4.10;;;;;;;8.97;73.95;101544.19;6083243;23;20377;-70
2022/02/02 12:03:15;;;;;;;4.20;4.00;;;;;;;8.72;75.95;101496.13;6039417;23;20022;-70
2022/02/02 12:05:54;;;;;;;3.80;3.70;;;;;;;8.75;76.01;101481.19;6106351;23;20014;-70
2022/02/02 12:20:06;;;;;;;4.80;4.60;;;;;;;10.06;72.04;101562.34;6083958;23;20487;-70
2022/02/02 12:47:11;;;;;;;4.43;4.22;;;;;;;10.19;69.53;101532.16;6083623;23;20017;-70
2022/02/02 12:57:49;;;;;;;4.25;4.05;;;;;;;9.31;69.97;101516.06;6081981;23;20006;-70
2022/02/02 13:00:36;;;;;;;6.47;6.18;;;;;;;9.49;70.70;101548.63;6073285;23;20033;-70
2022/02/02 13:03:04;;;;;;;4.95;4.75;;;;;;;9.41;69.56;101545.41;6070861;23;20050;-70
2022/02/02 13:05:31;;;;;;;4.03;3.85;;;;;;;9.33;69.60;101546.50;6089749;23;20021;-70
2022/02/02 13:08:00;;;;;;;4.75;4.55;;;;;;;8.75;69.58;101441.94;6106712;23;20057;-70
2022/02/02 13:10:28;;;;;;;4.20;4.00;;;;;;;9.40;70.32;101547.16;6078079;23;20992;-71
2022/02/02 13:13:06;;;;;;;4.22;4.03;;;;;;;9.27;69.44;101546.72;6078889;23;20452;-71
2022/02/02 13:18:38;;;;;;;3.72;3.63;;;;;;;8.97;69.55;101493.59;6058335;23;20372;-71
2022/02/02 13:26:39;;;;;;;4.70;4.50;;;;;;;9.54;68.94;101539.72;6081105;23;20415;-72
2022/02/02 13:29:28;;;;;;;4.60;4.40;;;;;;;8.81;69.09;101456.59;6122779;23;20021;-70
2022/02/02 13:43:36;;;;;;;4.43;4.22;;;;;;;10.44;65.88;101539.13;6111812;23;20206;-69
2022/02/02 14:01:54;;;;;;;4.40;4.20;;;;;;;9.91;64.04;101530.53;6060598;23;20011;-72
2022/02/02 14:04:58;;;;;;;4.70;4.50;;;;;;;9.73;63.42;101507.59;6108369;23;20178;-69
2022/02/02 14:32:47;;;;;;;4.30;4.10;;;;;;;9.43;65.42;101573.25;6067721;23;20022;-76
2022/02/02 14:35:15;;;;;;;5.57;5.38;;;;;;;9.69;64.93;101595.13;6080105;23;20474;-74
2022/02/02 14:37:46;;;;;;;4.63;4.43;;;;;;;8.94;64.08;101502.41;6042602;23;20014;-74
2022/02/02 14:40:42;;;;;;;4.20;4.00;;;;;;;9.56;64.48;101607.75;6082960;23;20025;-72
2022/02/02 14:43:12;;;;;;;5.45;5.25;;;;;;;9.18;64.79;101557.50;6060899;23;20517;-72
2022/02/02 14:45:44;;;;;;;4.15;3.95;;;;;;;9.57;64.84;101601.63;6047084;23;20030;-73
2022/02/02 14:48:21;;;;;;;5.57;5.37;;;;;;;9.16;64.99;101552.31;6055349;23;20022;-72
2022/02/02 14:50:57;;;;;;;4.05;3.85;;;;;;;9.28;65.26;101597.34;6072835;23;20329;-71
2022/02/02 15:24:31;;;;;;;5.47;5.28;;;;;;;8.33;69.14;101502.53;6089742;23;20028;-70
2022/02/02 15:32:34;;;;;;;5.78;5.38;;;;;;;8.57;69.73;101575.97;6011196;23;20021;-70
2022/02/02 15:35:01;;;;;;;4.55;4.35;;;;;;;8.47;70.68;101585.84;6083159;23;20022;-69
2022/02/02 15:37:44;;;;;;;4.10;3.90;;;;;;;8.63;71.35;101633.34;6036379;23;20024;-68
2022/02/02 15:40:15;;;;;;;5.68;5.45;;;;;;;8.40;72.36;101628.75;6085841;23;20026;-67
2022/02/02 15:56:58;;;;;;;5.47;5.28;;;;;;;7.98;75.01;101639.50;6081467;23;20030;-68
2022/02/02 15:58:57;;;;;;;3.80;3.70;;;;;;;7.85;75.92;101632.84;6062415;23;20035;-68
2022/02/02 16:04:15;;;;;;;5.32;5.13;;;;;;;7.58;77.31;101625.69;6078133;23;20034;-68
2022/02/02 16:06:41;;;;;;;4.10;3.90;;;;;;;7.14;77.36;101557.13;6056641;23;20118;-69
2022/02/02 16:09:26;;;;;;;8.48;6.05;;;;;;;7.02;77.80;101543.50;6086585;23;20097;-69
2022/02/02 16:12:04;;;;;;;4.28;4.07;;;;;;;7.50;79.17;101648.50;6060302;23;20010;-68
2022/02/02 16:14:34;;;;;;;4.00;3.80;;;;;;;7.48;79.06;101646.84;6092427;23;20109;-68
2022/02/02 16:17:20;;;;;;;4.57;4.38;;;;;;;7.48;79.66;101670.34;6077610;23;20020;-69
2022/02/02 16:31:29;;;;;;;5.60;5.25;;;;;;;6.93;80.00;101605.44;6022044;23;20541;-68
2022/02/02 16:34:36;;;;;;;4.00;3.80;;;;;;;6.97;80.95;101642.75;6082665;23;20022;-67
2022/02/02 16:36:53;;;;;;;4.90;4.60;;;;;;;6.90;81.57;101643.81;6096588;23;20357;-67
2022/02/02 16:39:24;;;;;;;4.65;4.45;;;;;;;6.78;82.75;101658.81;6046571;23;20296;-67
2022/02/02 16:44:37;;;;;;;4.05;3.88;;;;;;;6.29;83.24;101602.44;6079198;23;20482;-67
2022/02/02 16:47:05;;;;;;;5.07;4.88;;;;;;;6.49;83.96;101640.28;6104294;23;20247;-68
2022/02/02 16:49:49;;;;;;;3.80;3.70;;;;;;;6.14;83.81;101607.97;6057861;23;20325;-67
2022/02/02 16:52:23;;;;;;;4.85;4.65;;;;;;;5.50;84.63;101517.06;6090263;23;20220;-67
2022/02/02 16:54:50;;;;;;;4.07;3.88;;;;;;;6.19;84.07;101643.50;6081849;23;20049;-67
2022/02/02 17:32:55;;;;;;;3.65;3.55;;;;;;;5.85;89.49;101684.84;6023731;23;20157;-67
2022/02/02 17:35:36;;;;;;;4.65;4.45;;;;;;;5.29;90.34;101604.19;6091903;23;20508;-67
2022/02/02 17:38:16;;;;;;;4.80;4.60;;;;;;;5.77;90.53;101689.34;6085125;23;20441;-66
2022/02/02 17:41:06;;;;;;;4.05;3.90;;;;;;;5.73;90.59;101679.84;6108955;23;20053;-66
2022/02/02 18:21:09;;;;;;;5.07;4.88;;;;;;;4.46;95.24;101480.56;6046432;23;20027;-67
2022/02/02 18:52:55;;;;;;;4.10;3.90;;;;;;;6.19;97.02;101726.00;6055473;23;20128;-67
2022/02/02 19:06:44;;;;;;;5.40;5.00;;;;;;;6.13;97.75;101707.88;6051753;23;20073;-68
2022/02/02 19:31:11;;;;;;;4.65;4.32;;;;;;;6.16;98.95;101721.72;6078281;23;20032;-67
2022/02/02 20:12:04;;;;;;;5.30;5.00;;;;;;;6.55;100.00;101658.44;6079908;23;20009;-68
2022/02/02 20:14:31;;;;;;;3.75;3.65;;;;;;;6.82;100.00;101698.75;6106897;23;20080;-67
2022/02/02 20:16:57;;;;;;;5.57;5.18;;;;;;;6.89;100.00;101712.53;6090624;23;20544;-68
2022/02/02 20:19:28;;;;;;;4.60;4.30;;;;;;;6.77;100.00;101691.00;6073954;23;20076;-67
2022/02/02 20:21:56;;;;;;;5.00;4.72;;;;;;;6.78;100.00;101684.06;6077669;23;20798;-68
2022/02/02 20:24:26;;;;;;;5.68;5.38;;;;;;;6.66;100.00;101664.28;6099208;23;20021;-70
2022/02/02 20:26:53;;;;;;;5.85;5.47;;;;;;;6.46;100.00;101636.00;6078962;23;20013;-68
2022/02/02 20:29:20;;;;;;;5.10;4.80;;;;;;;6.77;100.00;101687.53;6080029;23;20084;-65
2022/02/02 20:31:46;;;;;;;4.63;4.43;;;;;;;6.24;100.00;101593.88;6119113;23;20068;-68
2022/02/02 20:34:13;;;;;;;5.32;5.13;;;;;;;7.01;100.00;101717.50;6073748;23;20462;-67
2022/02/02 20:36:40;;;;;;;5.38;5.05;;;;;;;7.03;100.00;101720.06;6083850;23;20125;-69
2022/02/02 20:39:36;;;;;;;5.90;5.60;;;;;;;6.59;100.00;101647.03;6079976;23;20041;-69
2022/02/02 20:42:06;;;;;;;5.25;5.05;;;;;;;6.70;100.00;101667.72;6096844;23;20024;-68
2022/02/02 20:44:55;;;;;;;4.10;3.90;;;;;;;7.03;100.00;101713.09;6077764;23;20113;-70
2022/02/02 21:06:27;;;;;;;4.53;4.32;;;;;;;6.77;100.00;101672.75;6108662;23;20459;-68
2022/02/02 21:09:07;;;;;;;3.70;3.60;;;;;;;7.12;100.00;101719.91;6095446;23;20025;-68
2022/02/02 21:14:01;;;;;;;4.05;3.85;;;;;;;6.91;100.00;101689.88;6077403;23;20340;-69
2022/02/02 21:16:30;;;;;;;4.78;4.57;;;;;;;7.19;100.00;101734.50;6059229;23;20072;-68
2022/02/02 21:19:00;;;;;;;5.57;3.92;;;;;;;6.58;100.00;101625.31;6056954;23;20292;-69
2022/02/02 21:21:50;;;;;;;4.45;4.25;;;;;;;7.23;100.00;101728.34;6075469;23;20014;-68
2022/02/02 21:29:12;;;;;;;6.07;5.78;;;;;;;7.29;100.00;101732.56;6051470;23;20018;-68
2022/02/02 21:31:39;;;;;;;4.13;3.92;;;;;;;7.31;100.00;101733.41;6061291;23;20060;-68
2022/02/02 21:34:05;;;;;;;5.45;5.25;;;;;;;7.32;100.00;101737.75;6060343;23;20022;-67
2022/02/02 21:36:33;;;;;;;4.05;3.85;;;;;;;7.09;100.00;101705.13;6057124;23;20443;-67
2022/02/02 21:39:09;;;;;;;3.85;3.75;;;;;;;7.31;100.00;101726.41;6051221;23;20051;-68
2022/02/02 21:41:39;;;;;;;4.30;3.80;;;;;;;7.33;100.00;101735.06;6048184;23;20356;-68
2022/02/02 21:44:09;;;;;;;5.32;5.13;;;;;;;7.37;100.00;101734.09;6081620;23;20025;-68
2022/02/02 21:46:36;;;;;;;4.25;4.05;;;;;;;7.38;100.00;101730.63;6043081;23;20034;-67
2022/02/02 21:49:04;;;;;;;4.60;4.40;;;;;;;6.10;100.00;101515.94;6052238;23;20030;-68
2022/02/02 21:51:37;;;;;;;5.45;4.95;;;;;;;7.07;100.00;101686.03;6052707;23;20022;-69
2022/02/02 21:54:04;;;;;;;5.45;5.15;;;;;;;7.31;100.00;101730.78;6053077;23;20055;-66
2022/02/02 21:56:32;;;;;;;5.25;5.00;;;;;;;7.39;100.00;101726.25;6057851;23;20026;-68
2022/02/02 21:58:58;;;;;;;3.70;3.60;;;;;;;7.43;100.00;101732.25;6050727;23;20042;-68
2022/02/02 22:01:26;;;;;;;4.05;3.85;;;;;;;7.35;100.00;101721.97;6058025;23;20031;-70
2022/02/02 22:03:52;;;;;;;4.32;4.13;;;;;;;7.01;100.00;101667.06;6047700;23;20010;-68
2022/02/02 22:06:19;;;;;;;5.10;4.90;;;;;;;7.46;100.00;101730.44;6068718;23;20334;-69
2022/02/02 22:08:46;;;;;;;4.10;3.90;;;;;;;6.93;100.00;101655.00;6065247;23;20017;-68
2022/02/02 22:11:12;;;;;;;5.55;5.35;;;;;;;7.45;100.00;101733.94;6074896;23;20020;-67
2022/02/02 22:13:42;;;;;;;4.05;3.85;;;;;;;7.42;100.00;101731.41;6067350;23;20017;-69
2022/02/02 22:16:19;;;;;;;5.25;5.05;;;;;;;7.27;100.00;101716.06;6086670;23;20174;-68
2022/02/02 22:18:46;;;;;;;4.85;4.55;;;;;;;7.37;100.00;101726.28;6088319;23;20455;-68
2022/02/02 22:21:13;;;;;;;5.40;5.20;;;;;;;6.32;100.00;101544.19;6116348;23;20239;-67
2022/02/02 22:23:41;;;;;;;4.28;4.07;;;;;;;7.42;100.00;101731.41;6081309;23;20036;-68
2022/02/02 22:26:10;;;;;;;6.32;5.95;;;;;;;7.43;100.00;101729.66;6083732;23;20076;-68
2022/02/02 22:28:36;;;;;;;6.63;5.78;;;;;;;6.29;100.00;101539.03;6100517;23;20025;-67
2022/02/02 22:31:03;;;;;;;5.05;4.75;;;;;;;7.42;100.00;101720.97;6093171;23;20027;-68
2022/02/02 22:33:32;;;;;;;4.22;4.03;;;;;;;7.38;100.00;101725.41;6100470;23;20018;-68
2022/02/02 22:35:59;;;;;;;4.10;3.90;;;;;;;7.34;100.00;101720.28;6082658;23;20376;-67
2022/02/02 22:38:25;;;;;;;4.93;4.63;;;;;;;7.42;100.00;101739.25;6102999;23;20051;-67
2022/02/02 22:40:53;;;;;;;3.97;3.78;;;;;;;7.21;100.00;101716.22;6079139;23;20696;-67
2022/02/02 22:43:19;;;;;;;5.18;4.97;;;;;;;7.41;100.00;101732.28;6097096;23;20512;-67
2022/02/02 22:45:47;;;;;;;4.20;4.00;;;;;;;7.41;100.00;101721.00;6083944;23;20037;-68
2022/02/02 22:48:17;;;;;;;6.35;6.05;;;;;;;6.42;100.00;101568.31;6108643;23;20495;-68
2022/02/02 22:50:43;;;;;;;4.40;4.20;;;;;;;7.29;100.00;101703.84;6080323;23;20050;-69
2022/02/02 22:53:10;;;;;;;5.70;5.45;;;;;;;6.85;100.00;101637.81;6073967;23;20446;-68
2022/02/02 22:55:37;;;;;;;3.80;3.70;;;;;;;7.35;100.00;101712.38;6110195;23;20372;-68
2022/02/02 22:58:03;;;;;;;6.20;4.95;;;;;;;7.37;100.00;101720.19;6099863;23;20025;-69
2022/02/02 23:00:34;;;;;;;4.50;4.30;;;;;;;7.02;100.00;101655.72;6100569;23;20189;-69
2022/02/02 23:03:03;;;;;;;3.80;3.70;;;;;;;6.21;100.00;101531.34;6062642;23;20017;-69